sensor_id;sensor_type;location;lat;lon;timestamp;temperature;humidity
9776;DHT22;4927;52.472;13.108;2024-01-27T00:00:32;4.70;99.90
9776;DHT22;4927;52.472;13.108;2024-01-27T00:01:34;4.70;99.90
9776;DHT22;4927;52.472;13.108;2024-01-27T00:02:36;4.70;99.90
9776;DHT22;4927;52.472;13.108;2024-01-27T00:03:37;4.70;99.90
9776;DHT22;4927;52.472;13.108;2024-01-27T00:04:39;4.70;99.90
9776;DHT22;4927;52.472;13.108;2024-01-27T00:05:41;4.70;99.90
9776;DHT22;4927;52.472;13.108;2024-01-27T00:06:42;4.70;99.90
9776;DHT22;4927;52.472;13.108;2024-01-27T00:07:45;4.70;99.90
9776;DHT22;4927;52.472;13.108;2024-01-27T00:08:47;4.70;99.90
9776;DHT22;4927;52.472;13.108;2024-01-27T00:09:49;4.60;99.90
9776;DHT22;4927;52.472;13.108;2024-01-27T00:10:51;4.60;99.90
9776;DHT22;4927;52.472;13.108;2024-01-27T00:11:53;4.70;99.90
9776;DHT22;4927;52.472;13.108;2024-01-27T00:12:55;4.70;99.90
9776;DHT22;4927;52.472;13.108;2024-01-27T00:13:57;4.60;99.90
9776;DHT22;4927;52.472;13.108;2024-01-27T00:14:58;4.60;99.90
9776;DHT22;4927;52.472;13.108;2024-01-27T00:16:00;4.60;99.90
9776;DHT22;4927;52.472;13.108;2024-01-27T00:17:02;4.70;99.90
9776;DHT22;4927;52.472;13.108;2024-01-27T00:18:04;4.70;99.90
9776;DHT22;4927;52.472;13.108;2024-01-27T00:19:05;4.70;99.90
9776;DHT22;4927;52.472;13.108;2024-01-27T00:20:07;4.70;99.90
9776;DHT22;4927;52.472;13.108;2024-01-27T00:21:10;4.70;99.90
9776;DHT22;4927;52.472;13.108;2024-01-27T00:22:11;4.70;99.90
9776;DHT22;4927;52.472;13.108;2024-01-27T00:23:13;4.70;99.90
9776;DHT22;4927;52.472;13.108;2024-01-27T00:24:16;4.70;99.90
9776;DHT22;4927;52.472;13.108;2024-01-27T00:25:17;4.70;99.90
9776;DHT22;4927;52.472;13.108;2024-01-27T00:26:20;4.70;99.90
9776;DHT22;4927;52.472;13.108;2024-01-27T00:27:22;4.70;99.90
9776;DHT22;4927;52.472;13.108;2024-01-27T00:28:24;4.70;99.90
9776;DHT22;4927;52.472;13.108;2024-01-27T00:29:26;4.70;99.90
9776;DHT22;4927;52.472;13.108;2024-01-27T00:30:28;4.70;99.90
9776;DHT22;4927;52.472;13.108;2024-01-27T00:31:29;4.70;99.90
9776;DHT22;4927;52.472;13.108;2024-01-27T00:32:31;4.70;99.90
9776;DHT22;4927;52.472;13.108;2024-01-27T00:33:33;4.70;99.90
9776;DHT22;4927;52.472;13.108;2024-01-27T00:34:34;4.70;99.90
9776;DHT22;4927;52.472;13.108;2024-01-27T00:35:36;4.60;99.90
9776;DHT22;4927;52.472;13.108;2024-01-27T00:36:38;4.70;99.90
9776;DHT22;4927;52.472;13.108;2024-01-27T00:37:40;4.70;99.90
9776;DHT22;4927;52.472;13.108;2024-01-27T00:38:42;4.70;99.90
9776;DHT22;4927;52.472;13.108;2024-01-27T00:39:43;4.70;99.90
9776;DHT22;4927;52.472;13.108;2024-01-27T00:40:45;4.70;99.90
9776;DHT22;4927;52.472;13.108;2024-01-27T00:41:47;4.70;99.90
9776;DHT22;4927;52.472;13.108;2024-01-27T00:42:49;4.70;99.90
9776;DHT22;4927;52.472;13.108;2024-01-27T00:43:50;4.60;99.90
9776;DHT22;4927;52.472;13.108;2024-01-27T00:44:52;4.60;99.90
9776;DHT22;4927;52.472;13.108;2024-01-27T00:45:55;4.60;99.90
9776;DHT22;4927;52.472;13.108;2024-01-27T00:46:56;4.60;99.90
9776;DHT22;4927;52.472;13.108;2024-01-27T00:47:59;4.60;99.90
9776;DHT22;4927;52.472;13.108;2024-01-27T00:49:00;4.60;99.90
9776;DHT22;4927;52.472;13.108;2024-01-27T00:50:02;4.60;99.90
9776;DHT22;4927;52.472;13.108;2024-01-27T00:51:05;4.60;99.90
9776;DHT22;4927;52.472;13.108;2024-01-27T00:52:07;4.60;99.90
9776;DHT22;4927;52.472;13.108;2024-01-27T00:53:09;4.60;99.90
9776;DHT22;4927;52.472;13.108;2024-01-27T00:54:10;4.60;99.90
9776;DHT22;4927;52.472;13.108;2024-01-27T00:55:12;4.60;99.90
9776;DHT22;4927;52.472;13.108;2024-01-27T00:56:15;4.60;99.90
9776;DHT22;4927;52.472;13.108;2024-01-27T00:57:17;4.40;99.90
9776;DHT22;4927;52.472;13.108;2024-01-27T00:58:19;4.60;99.90
9776;DHT22;4927;52.472;13.108;2024-01-27T00:59:21;4.60;99.90
9776;DHT22;4927;52.472;13.108;2024-01-27T01:00:22;4.60;99.90
9776;DHT22;4927;52.472;13.108;2024-01-27T01:01:25;4.60;99.90
9776;DHT22;4927;52.472;13.108;2024-01-27T01:02:27;4.60;99.90
9776;DHT22;4927;52.472;13.108;2024-01-27T01:03:29;4.60;99.90
9776;DHT22;4927;52.472;13.108;2024-01-27T01:04:31;4.50;99.90
9776;DHT22;4927;52.472;13.108;2024-01-27T01:05:33;4.60;99.90
9776;DHT22;4927;52.472;13.108;2024-01-27T01:06:34;4.60;99.90
9776;DHT22;4927;52.472;13.108;2024-01-27T01:07:36;4.60;99.90
9776;DHT22;4927;52.472;13.108;2024-01-27T01:08:38;4.60;99.90
9776;DHT22;4927;52.472;13.108;2024-01-27T01:09:39;4.60;99.90
9776;DHT22;4927;52.472;13.108;2024-01-27T01:10:41;4.60;99.90
9776;DHT22;4927;52.472;13.108;2024-01-27T01:11:43;4.50;99.90
9776;DHT22;4927;52.472;13.108;2024-01-27T01:12:45;4.60;99.90
9776;DHT22;4927;52.472;13.108;2024-01-27T01:13:46;4.50;99.90
9776;DHT22;4927;52.472;13.108;2024-01-27T01:14:48;4.60;99.90
9776;DHT22;4927;52.472;13.108;2024-01-27T01:15:50;4.50;99.90
9776;DHT22;4927;52.472;13.108;2024-01-27T01:16:52;4.50;99.90
9776;DHT22;4927;52.472;13.108;2024-01-27T01:17:54;4.50;99.90
9776;DHT22;4927;52.472;13.108;2024-01-27T01:18:55;4.50;99.90
9776;DHT22;4927;52.472;13.108;2024-01-27T01:19:57;4.50;99.90
9776;DHT22;4927;52.472;13.108;2024-01-27T01:20:59;4.40;99.90
9776;DHT22;4927;52.472;13.108;2024-01-27T01:22:00;4.40;99.90
9776;DHT22;4927;52.472;13.108;2024-01-27T01:23:02;4.40;99.90
9776;DHT22;4927;52.472;13.108;2024-01-27T01:24:04;4.40;99.90
9776;DHT22;4927;52.472;13.108;2024-01-27T01:25:07;4.40;99.90
9776;DHT22;4927;52.472;13.108;2024-01-27T01:26:08;4.30;99.90
9776;DHT22;4927;52.472;13.108;2024-01-27T01:27:11;4.40;99.90
9776;DHT22;4927;52.472;13.108;2024-01-27T01:28:13;4.40;99.90
9776;DHT22;4927;52.472;13.108;2024-01-27T01:29:14;4.40;99.90
9776;DHT22;4927;52.472;13.108;2024-01-27T01:30:17;4.40;99.90
9776;DHT22;4927;52.472;13.108;2024-01-27T01:31:19;4.30;99.90
9776;DHT22;4927;52.472;13.108;2024-01-27T01:32:21;4.40;99.90
9776;DHT22;4927;52.472;13.108;2024-01-27T01:33:22;4.40;99.90
9776;DHT22;4927;52.472;13.108;2024-01-27T01:34:25;4.30;99.90
9776;DHT22;4927;52.472;13.108;2024-01-27T01:35:27;4.30;99.90
9776;DHT22;4927;52.472;13.108;2024-01-27T01:36:29;4.30;99.90
9776;DHT22;4927;52.472;13.108;2024-01-27T01:37:31;4.30;99.90
9776;DHT22;4927;52.472;13.108;2024-01-27T01:38:32;4.30;99.90
9776;DHT22;4927;52.472;13.108;2024-01-27T01:39:34;4.30;99.90
9776;DHT22;4927;52.472;13.108;2024-01-27T01:40:36;4.30;99.90
9776;DHT22;4927;52.472;13.108;2024-01-27T01:41:38;4.30;99.90
9776;DHT22;4927;52.472;13.108;2024-01-27T01:42:39;4.30;99.90
9776;DHT22;4927;52.472;13.108;2024-01-27T01:43:42;4.30;99.90
9776;DHT22;4927;52.472;13.108;2024-01-27T01:44:44;4.30;99.90
9776;DHT22;4927;52.472;13.108;2024-01-27T01:45:46;4.30;99.90
9776;DHT22;4927;52.472;13.108;2024-01-27T01:46:48;4.30;99.90
9776;DHT22;4927;52.472;13.108;2024-01-27T01:47:50;4.30;99.90
9776;DHT22;4927;52.472;13.108;2024-01-27T01:48:52;4.30;99.90
9776;DHT22;4927;52.472;13.108;2024-01-27T01:49:54;4.30;99.90
9776;DHT22;4927;52.472;13.108;2024-01-27T01:50:56;4.30;99.90
9776;DHT22;4927;52.472;13.108;2024-01-27T01:51:58;4.30;99.90
9776;DHT22;4927;52.472;13.108;2024-01-27T01:53:00;4.30;99.90
9776;DHT22;4927;52.472;13.108;2024-01-27T01:54:01;4.30;99.90
9776;DHT22;4927;52.472;13.108;2024-01-27T01:55:04;4.30;99.90
9776;DHT22;4927;52.472;13.108;2024-01-27T01:56:07;4.30;99.90
9776;DHT22;4927;52.472;13.108;2024-01-27T01:57:09;4.30;99.90
9776;DHT22;4927;52.472;13.108;2024-01-27T01:58:11;4.40;99.90
9776;DHT22;4927;52.472;13.108;2024-01-27T01:59:13;4.40;99.90
9776;DHT22;4927;52.472;13.108;2024-01-27T02:00:15;4.40;99.90
9776;DHT22;4927;52.472;13.108;2024-01-27T02:01:17;4.40;99.90
9776;DHT22;4927;52.472;13.108;2024-01-27T02:02:19;4.40;99.90
9776;DHT22;4927;52.472;13.108;2024-01-27T02:03:20;4.40;99.90
9776;DHT22;4927;52.472;13.108;2024-01-27T02:04:23;4.40;99.90
9776;DHT22;4927;52.472;13.108;2024-01-27T02:05:25;4.40;99.90
9776;DHT22;4927;52.472;13.108;2024-01-27T02:06:28;4.40;99.90
9776;DHT22;4927;52.472;13.108;2024-01-27T02:07:29;4.40;99.90
9776;DHT22;4927;52.472;13.108;2024-01-27T02:08:31;4.40;99.90
9776;DHT22;4927;52.472;13.108;2024-01-27T02:09:33;4.40;99.90
9776;DHT22;4927;52.472;13.108;2024-01-27T02:10:35;4.40;99.90
9776;DHT22;4927;52.472;13.108;2024-01-27T02:11:38;4.40;99.90
9776;DHT22;4927;52.472;13.108;2024-01-27T02:12:39;4.40;99.90
9776;DHT22;4927;52.472;13.108;2024-01-27T02:13:41;4.40;99.90
9776;DHT22;4927;52.472;13.108;2024-01-27T02:14:43;4.40;99.90
9776;DHT22;4927;52.472;13.108;2024-01-27T02:15:46;4.50;99.90
9776;DHT22;4927;52.472;13.108;2024-01-27T02:16:48;4.50;99.90
9776;DHT22;4927;52.472;13.108;2024-01-27T02:17:49;4.40;99.90
9776;DHT22;4927;52.472;13.108;2024-01-27T02:18:52;4.40;99.90
9776;DHT22;4927;52.472;13.108;2024-01-27T02:19:55;4.40;99.90
9776;DHT22;4927;52.472;13.108;2024-01-27T02:20:56;4.40;99.90
9776;DHT22;4927;52.472;13.108;2024-01-27T02:21:58;4.40;99.90
9776;DHT22;4927;52.472;13.108;2024-01-27T02:23:00;4.40;99.90
9776;DHT22;4927;52.472;13.108;2024-01-27T02:24:06;4.40;99.90
9776;DHT22;4927;52.472;13.108;2024-01-27T02:25:05;4.40;99.90
9776;DHT22;4927;52.472;13.108;2024-01-27T02:26:07;4.40;99.90
9776;DHT22;4927;52.472;13.108;2024-01-27T02:27:09;4.40;99.90
9776;DHT22;4927;52.472;13.108;2024-01-27T02:28:10;4.40;99.90
9776;DHT22;4927;52.472;13.108;2024-01-27T02:29:12;4.40;99.90
9776;DHT22;4927;52.472;13.108;2024-01-27T02:30:14;4.40;99.90
9776;DHT22;4927;52.472;13.108;2024-01-27T02:31:16;4.40;99.90
9776;DHT22;4927;52.472;13.108;2024-01-27T02:32:18;4.30;99.90
9776;DHT22;4927;52.472;13.108;2024-01-27T02:33:20;4.30;99.90
9776;DHT22;4927;52.472;13.108;2024-01-27T02:34:21;4.30;99.90
9776;DHT22;4927;52.472;13.108;2024-01-27T02:35:23;4.30;99.90
9776;DHT22;4927;52.472;13.108;2024-01-27T02:36:25;4.30;99.90
9776;DHT22;4927;52.472;13.108;2024-01-27T02:37:27;4.30;99.90
9776;DHT22;4927;52.472;13.108;2024-01-27T02:38:29;4.20;99.90
9776;DHT22;4927;52.472;13.108;2024-01-27T02:39:30;4.20;99.90
9776;DHT22;4927;52.472;13.108;2024-01-27T02:40:32;4.20;99.90
9776;DHT22;4927;52.472;13.108;2024-01-27T02:41:34;4.10;99.90
9776;DHT22;4927;52.472;13.108;2024-01-27T02:42:36;4.10;99.90
9776;DHT22;4927;52.472;13.108;2024-01-27T02:43:38;4.10;99.90
9776;DHT22;4927;52.472;13.108;2024-01-27T02:44:40;4.10;99.90
9776;DHT22;4927;52.472;13.108;2024-01-27T02:45:41;4.00;99.90
9776;DHT22;4927;52.472;13.108;2024-01-27T02:46:43;4.00;99.90
9776;DHT22;4927;52.472;13.108;2024-01-27T02:47:45;4.00;99.90
9776;DHT22;4927;52.472;13.108;2024-01-27T02:48:47;4.00;99.90
9776;DHT22;4927;52.472;13.108;2024-01-27T02:49:48;4.00;99.90
9776;DHT22;4927;52.472;13.108;2024-01-27T02:50:50;4.00;99.90
9776;DHT22;4927;52.472;13.108;2024-01-27T02:51:52;3.90;99.90
9776;DHT22;4927;52.472;13.108;2024-01-27T02:52:54;3.90;99.90
9776;DHT22;4927;52.472;13.108;2024-01-27T02:53:55;3.90;99.90
9776;DHT22;4927;52.472;13.108;2024-01-27T02:54:58;3.90;99.90
9776;DHT22;4927;52.472;13.108;2024-01-27T02:56:00;3.90;99.90
9776;DHT22;4927;52.472;13.108;2024-01-27T02:57:02;3.90;99.90
9776;DHT22;4927;52.472;13.108;2024-01-27T02:58:04;3.90;99.90
9776;DHT22;4927;52.472;13.108;2024-01-27T02:59:06;3.80;99.90
9776;DHT22;4927;52.472;13.108;2024-01-27T03:00:09;3.80;99.90
9776;DHT22;4927;52.472;13.108;2024-01-27T03:01:12;3.80;99.90
9776;DHT22;4927;52.472;13.108;2024-01-27T03:02:13;3.80;99.90
9776;DHT22;4927;52.472;13.108;2024-01-27T03:03:15;3.80;99.90
9776;DHT22;4927;52.472;13.108;2024-01-27T03:04:17;3.80;99.90
9776;DHT22;4927;52.472;13.108;2024-01-27T03:05:19;3.80;99.90
9776;DHT22;4927;52.472;13.108;2024-01-27T03:06:20;3.80;99.90
9776;DHT22;4927;52.472;13.108;2024-01-27T03:07:22;3.80;99.90
9776;DHT22;4927;52.472;13.108;2024-01-27T03:08:24;3.80;99.90
9776;DHT22;4927;52.472;13.108;2024-01-27T03:09:26;3.80;99.90
9776;DHT22;4927;52.472;13.108;2024-01-27T03:10:28;3.80;99.90
9776;DHT22;4927;52.472;13.108;2024-01-27T03:11:30;3.80;99.90
9776;DHT22;4927;52.472;13.108;2024-01-27T03:12:31;3.80;99.90
9776;DHT22;4927;52.472;13.108;2024-01-27T03:13:33;3.70;99.90
9776;DHT22;4927;52.472;13.108;2024-01-27T03:14:36;3.70;99.90
9776;DHT22;4927;52.472;13.108;2024-01-27T03:15:38;3.70;99.90
9776;DHT22;4927;52.472;13.108;2024-01-27T03:16:42;3.70;99.90
9776;DHT22;4927;52.472;13.108;2024-01-27T03:17:42;3.60;99.90
9776;DHT22;4927;52.472;13.108;2024-01-27T03:18:44;3.60;99.90
9776;DHT22;4927;52.472;13.108;2024-01-27T03:19:46;3.60;99.90
9776;DHT22;4927;52.472;13.108;2024-01-27T03:20:48;3.60;99.90
9776;DHT22;4927;52.472;13.108;2024-01-27T03:21:50;3.60;99.90
9776;DHT22;4927;52.472;13.108;2024-01-27T03:22:52;3.60;99.90
9776;DHT22;4927;52.472;13.108;2024-01-27T03:23:55;3.60;99.90
9776;DHT22;4927;52.472;13.108;2024-01-27T03:24:57;3.60;99.90
9776;DHT22;4927;52.472;13.108;2024-01-27T03:25:59;3.60;99.90
9776;DHT22;4927;52.472;13.108;2024-01-27T03:27:00;3.60;99.90
9776;DHT22;4927;52.472;13.108;2024-01-27T03:28:03;3.60;99.90
9776;DHT22;4927;52.472;13.108;2024-01-27T03:29:06;3.60;99.90
9776;DHT22;4927;52.472;13.108;2024-01-27T03:30:08;3.60;99.90
9776;DHT22;4927;52.472;13.108;2024-01-27T03:31:11;3.60;99.90
9776;DHT22;4927;52.472;13.108;2024-01-27T03:32:13;3.60;99.90
9776;DHT22;4927;52.472;13.108;2024-01-27T03:33:16;3.50;99.90
9776;DHT22;4927;52.472;13.108;2024-01-27T03:34:17;3.50;99.90
9776;DHT22;4927;52.472;13.108;2024-01-27T03:35:20;3.50;99.90
9776;DHT22;4927;52.472;13.108;2024-01-27T03:36:22;3.50;99.90
9776;DHT22;4927;52.472;13.108;2024-01-27T03:37:24;3.50;99.90
9776;DHT22;4927;52.472;13.108;2024-01-27T03:38:26;3.50;99.90
9776;DHT22;4927;52.472;13.108;2024-01-27T03:39:27;3.60;99.90
9776;DHT22;4927;52.472;13.108;2024-01-27T03:40:29;3.50;99.90
9776;DHT22;4927;52.472;13.108;2024-01-27T03:41:31;3.40;99.90
9776;DHT22;4927;52.472;13.108;2024-01-27T03:42:33;3.40;99.90
9776;DHT22;4927;52.472;13.108;2024-01-27T03:43:35;3.50;99.90
9776;DHT22;4927;52.472;13.108;2024-01-27T03:44:37;3.50;99.90
9776;DHT22;4927;52.472;13.108;2024-01-27T03:45:39;3.50;99.90
9776;DHT22;4927;52.472;13.108;2024-01-27T03:46:42;3.50;99.90
9776;DHT22;4927;52.472;13.108;2024-01-27T03:47:43;3.40;99.90
9776;DHT22;4927;52.472;13.108;2024-01-27T03:48:45;3.50;99.90
9776;DHT22;4927;52.472;13.108;2024-01-27T03:49:47;3.50;99.90
9776;DHT22;4927;52.472;13.108;2024-01-27T03:50:49;3.50;99.90
9776;DHT22;4927;52.472;13.108;2024-01-27T03:51:51;3.50;99.90
9776;DHT22;4927;52.472;13.108;2024-01-27T03:52:53;3.50;99.90
9776;DHT22;4927;52.472;13.108;2024-01-27T03:53:55;3.50;99.90
9776;DHT22;4927;52.472;13.108;2024-01-27T03:54:56;3.50;99.90
9776;DHT22;4927;52.472;13.108;2024-01-27T03:55:59;3.40;99.90
9776;DHT22;4927;52.472;13.108;2024-01-27T03:57:01;3.40;99.90
9776;DHT22;4927;52.472;13.108;2024-01-27T03:58:03;3.40;99.90
9776;DHT22;4927;52.472;13.108;2024-01-27T03:59:05;3.40;99.90
9776;DHT22;4927;52.472;13.108;2024-01-27T04:00:08;3.40;99.90
9776;DHT22;4927;52.472;13.108;2024-01-27T04:01:10;3.40;99.90
9776;DHT22;4927;52.472;13.108;2024-01-27T04:02:12;3.40;99.90
9776;DHT22;4927;52.472;13.108;2024-01-27T04:03:14;3.40;99.90
9776;DHT22;4927;52.472;13.108;2024-01-27T04:04:16;3.40;99.90
9776;DHT22;4927;52.472;13.108;2024-01-27T04:05:17;3.40;99.90
9776;DHT22;4927;52.472;13.108;2024-01-27T04:06:19;3.40;99.90
9776;DHT22;4927;52.472;13.108;2024-01-27T04:07:21;3.30;99.90
9776;DHT22;4927;52.472;13.108;2024-01-27T04:08:23;3.40;99.90
9776;DHT22;4927;52.472;13.108;2024-01-27T04:09:25;3.40;99.90
9776;DHT22;4927;52.472;13.108;2024-01-27T04:10:27;3.40;99.90
9776;DHT22;4927;52.472;13.108;2024-01-27T04:11:29;3.30;99.90
9776;DHT22;4927;52.472;13.108;2024-01-27T04:12:32;3.40;99.90
9776;DHT22;4927;52.472;13.108;2024-01-27T04:13:34;3.30;99.90
9776;DHT22;4927;52.472;13.108;2024-01-27T04:14:36;3.30;99.90
9776;DHT22;4927;52.472;13.108;2024-01-27T04:15:37;3.30;99.90
9776;DHT22;4927;52.472;13.108;2024-01-27T04:16:39;3.30;99.90
9776;DHT22;4927;52.472;13.108;2024-01-27T04:17:41;3.30;99.90
9776;DHT22;4927;52.472;13.108;2024-01-27T04:18:43;3.30;99.90
9776;DHT22;4927;52.472;13.108;2024-01-27T04:19:44;3.30;99.90
9776;DHT22;4927;52.472;13.108;2024-01-27T04:20:46;3.30;99.90
9776;DHT22;4927;52.472;13.108;2024-01-27T04:21:48;3.30;99.90
9776;DHT22;4927;52.472;13.108;2024-01-27T04:22:50;3.30;99.90
9776;DHT22;4927;52.472;13.108;2024-01-27T04:23:52;3.30;99.90
9776;DHT22;4927;52.472;13.108;2024-01-27T04:24:54;3.30;99.90
9776;DHT22;4927;52.472;13.108;2024-01-27T04:25:55;3.30;99.90
9776;DHT22;4927;52.472;13.108;2024-01-27T04:26:58;3.30;99.90
9776;DHT22;4927;52.472;13.108;2024-01-27T04:27:59;3.30;99.90
9776;DHT22;4927;52.472;13.108;2024-01-27T04:29:01;3.30;99.90
9776;DHT22;4927;52.472;13.108;2024-01-27T04:30:04;3.30;99.90
9776;DHT22;4927;52.472;13.108;2024-01-27T04:31:07;3.30;99.90
9776;DHT22;4927;52.472;13.108;2024-01-27T04:32:09;3.30;99.90
9776;DHT22;4927;52.472;13.108;2024-01-27T04:33:11;3.30;99.90
9776;DHT22;4927;52.472;13.108;2024-01-27T04:34:13;3.30;99.90
9776;DHT22;4927;52.472;13.108;2024-01-27T04:35:15;3.30;99.90
9776;DHT22;4927;52.472;13.108;2024-01-27T04:36:24;3.20;99.90
9776;DHT22;4927;52.472;13.108;2024-01-27T04:37:18;3.20;99.90
9776;DHT22;4927;52.472;13.108;2024-01-27T04:38:20;3.30;99.90
9776;DHT22;4927;52.472;13.108;2024-01-27T04:39:22;3.30;99.90
9776;DHT22;4927;52.472;13.108;2024-01-27T04:40:23;3.30;99.90
9776;DHT22;4927;52.472;13.108;2024-01-27T04:41:25;3.30;99.90
9776;DHT22;4927;52.472;13.108;2024-01-27T04:42:27;3.30;99.90
9776;DHT22;4927;52.472;13.108;2024-01-27T04:43:29;3.20;99.90
9776;DHT22;4927;52.472;13.108;2024-01-27T04:44:30;3.20;99.90
9776;DHT22;4927;52.472;13.108;2024-01-27T04:45:32;3.30;99.90
9776;DHT22;4927;52.472;13.108;2024-01-27T04:46:34;3.20;99.90
9776;DHT22;4927;52.472;13.108;2024-01-27T04:47:35;3.20;99.90
9776;DHT22;4927;52.472;13.108;2024-01-27T04:48:37;3.20;99.90
9776;DHT22;4927;52.472;13.108;2024-01-27T04:49:39;3.20;99.90
9776;DHT22;4927;52.472;13.108;2024-01-27T04:50:41;3.20;99.90
9776;DHT22;4927;52.472;13.108;2024-01-27T04:51:42;3.20;99.90
9776;DHT22;4927;52.472;13.108;2024-01-27T04:52:45;3.20;99.90
9776;DHT22;4927;52.472;13.108;2024-01-27T04:53:47;3.20;99.90
9776;DHT22;4927;52.472;13.108;2024-01-27T04:54:48;3.20;99.90
9776;DHT22;4927;52.472;13.108;2024-01-27T04:55:51;3.20;99.90
9776;DHT22;4927;52.472;13.108;2024-01-27T04:56:53;3.20;99.90
9776;DHT22;4927;52.472;13.108;2024-01-27T04:57:55;3.20;99.90
9776;DHT22;4927;52.472;13.108;2024-01-27T04:58:57;3.20;99.90
9776;DHT22;4927;52.472;13.108;2024-01-27T04:59:59;3.20;99.90
9776;DHT22;4927;52.472;13.108;2024-01-27T05:01:01;3.30;99.90
9776;DHT22;4927;52.472;13.108;2024-01-27T05:02:03;3.30;99.90
9776;DHT22;4927;52.472;13.108;2024-01-27T05:03:05;3.20;99.90
9776;DHT22;4927;52.472;13.108;2024-01-27T05:04:07;3.30;99.90
9776;DHT22;4927;52.472;13.108;2024-01-27T05:05:09;3.30;99.90
9776;DHT22;4927;52.472;13.108;2024-01-27T05:06:11;3.30;99.90
9776;DHT22;4927;52.472;13.108;2024-01-27T05:07:12;3.30;99.90
9776;DHT22;4927;52.472;13.108;2024-01-27T05:08:14;3.40;99.90
9776;DHT22;4927;52.472;13.108;2024-01-27T05:09:17;3.40;99.90
9776;DHT22;4927;52.472;13.108;2024-01-27T05:10:18;3.40;99.90
9776;DHT22;4927;52.472;13.108;2024-01-27T05:11:29;3.40;99.90
9776;DHT22;4927;52.472;13.108;2024-01-27T05:12:29;3.40;99.90
9776;DHT22;4927;52.472;13.108;2024-01-27T05:13:31;3.40;99.90
9776;DHT22;4927;52.472;13.108;2024-01-27T05:14:34;3.50;99.90
9776;DHT22;4927;52.472;13.108;2024-01-27T05:15:35;3.40;99.90
9776;DHT22;4927;52.472;13.108;2024-01-27T05:16:37;3.50;99.90
9776;DHT22;4927;52.472;13.108;2024-01-27T05:17:40;3.50;99.90
9776;DHT22;4927;52.472;13.108;2024-01-27T05:18:42;3.50;99.90
9776;DHT22;4927;52.472;13.108;2024-01-27T05:19:44;3.50;99.90
9776;DHT22;4927;52.472;13.108;2024-01-27T05:20:46;3.50;99.90
9776;DHT22;4927;52.472;13.108;2024-01-27T05:21:47;3.50;99.90
9776;DHT22;4927;52.472;13.108;2024-01-27T05:22:50;3.60;99.90
9776;DHT22;4927;52.472;13.108;2024-01-27T05:23:52;3.60;99.90
9776;DHT22;4927;52.472;13.108;2024-01-27T05:24:53;3.60;99.90
9776;DHT22;4927;52.472;13.108;2024-01-27T05:25:55;3.60;99.90
9776;DHT22;4927;52.472;13.108;2024-01-27T05:26:57;3.70;99.90
9776;DHT22;4927;52.472;13.108;2024-01-27T05:27:59;3.60;99.90
9776;DHT22;4927;52.472;13.108;2024-01-27T05:29:01;3.70;99.90
9776;DHT22;4927;52.472;13.108;2024-01-27T05:30:03;3.70;99.90
9776;DHT22;4927;52.472;13.108;2024-01-27T05:31:07;3.70;99.90
9776;DHT22;4927;52.472;13.108;2024-01-27T05:32:09;3.70;99.90
9776;DHT22;4927;52.472;13.108;2024-01-27T05:33:11;3.70;99.90
9776;DHT22;4927;52.472;13.108;2024-01-27T05:34:13;3.70;99.90
9776;DHT22;4927;52.472;13.108;2024-01-27T05:35:15;3.70;99.90
9776;DHT22;4927;52.472;13.108;2024-01-27T05:36:17;3.80;99.90
9776;DHT22;4927;52.472;13.108;2024-01-27T05:37:19;3.80;99.90
9776;DHT22;4927;52.472;13.108;2024-01-27T05:38:20;3.80;99.90
9776;DHT22;4927;52.472;13.108;2024-01-27T05:39:23;3.80;99.90
9776;DHT22;4927;52.472;13.108;2024-01-27T05:40:24;3.80;99.90
9776;DHT22;4927;52.472;13.108;2024-01-27T05:41:26;3.80;99.90
9776;DHT22;4927;52.472;13.108;2024-01-27T05:42:28;3.90;99.90
9776;DHT22;4927;52.472;13.108;2024-01-27T05:43:30;3.90;99.90
9776;DHT22;4927;52.472;13.108;2024-01-27T05:44:31;3.90;99.90
9776;DHT22;4927;52.472;13.108;2024-01-27T05:45:33;3.90;99.90
9776;DHT22;4927;52.472;13.108;2024-01-27T05:46:35;3.90;99.90
9776;DHT22;4927;52.472;13.108;2024-01-27T05:47:37;3.90;99.90
9776;DHT22;4927;52.472;13.108;2024-01-27T05:48:39;4.00;99.90
9776;DHT22;4927;52.472;13.108;2024-01-27T05:49:41;4.00;99.90
9776;DHT22;4927;52.472;13.108;2024-01-27T05:50:43;4.00;99.90
9776;DHT22;4927;52.472;13.108;2024-01-27T05:51:45;4.00;99.90
9776;DHT22;4927;52.472;13.108;2024-01-27T05:52:47;4.00;99.90
9776;DHT22;4927;52.472;13.108;2024-01-27T05:53:49;4.00;99.90
9776;DHT22;4927;52.472;13.108;2024-01-27T05:54:50;4.00;99.90
9776;DHT22;4927;52.472;13.108;2024-01-27T05:55:52;4.00;99.90
9776;DHT22;4927;52.472;13.108;2024-01-27T05:56:54;4.00;99.90
9776;DHT22;4927;52.472;13.108;2024-01-27T05:57:56;4.00;99.90
9776;DHT22;4927;52.472;13.108;2024-01-27T05:58:57;4.00;99.90
9776;DHT22;4927;52.472;13.108;2024-01-27T05:59:59;4.10;99.90
9776;DHT22;4927;52.472;13.108;2024-01-27T06:01:01;4.10;99.90
9776;DHT22;4927;52.472;13.108;2024-01-27T06:02:03;4.10;99.90
9776;DHT22;4927;52.472;13.108;2024-01-27T06:03:06;4.10;99.90
9776;DHT22;4927;52.472;13.108;2024-01-27T06:04:07;4.10;99.90
9776;DHT22;4927;52.472;13.108;2024-01-27T06:05:09;4.10;99.90
9776;DHT22;4927;52.472;13.108;2024-01-27T06:06:11;4.10;99.90
9776;DHT22;4927;52.472;13.108;2024-01-27T06:07:13;4.10;99.90
9776;DHT22;4927;52.472;13.108;2024-01-27T06:08:15;4.10;99.90
9776;DHT22;4927;52.472;13.108;2024-01-27T06:09:16;4.10;99.90
9776;DHT22;4927;52.472;13.108;2024-01-27T06:10:18;4.10;99.90
9776;DHT22;4927;52.472;13.108;2024-01-27T06:11:27;4.10;99.90
9776;DHT22;4927;52.472;13.108;2024-01-27T06:12:28;4.10;99.90
9776;DHT22;4927;52.472;13.108;2024-01-27T06:13:30;4.10;99.90
9776;DHT22;4927;52.472;13.108;2024-01-27T06:14:32;4.10;99.90
9776;DHT22;4927;52.472;13.108;2024-01-27T06:15:34;4.10;99.90
9776;DHT22;4927;52.472;13.108;2024-01-27T06:16:36;4.10;99.90
9776;DHT22;4927;52.472;13.108;2024-01-27T06:17:37;4.10;99.90
9776;DHT22;4927;52.472;13.108;2024-01-27T06:18:39;4.10;99.90
9776;DHT22;4927;52.472;13.108;2024-01-27T06:19:41;4.20;99.90
9776;DHT22;4927;52.472;13.108;2024-01-27T06:20:44;4.20;99.90
9776;DHT22;4927;52.472;13.108;2024-01-27T06:21:46;4.10;99.90
9776;DHT22;4927;52.472;13.108;2024-01-27T06:22:47;4.10;99.90
9776;DHT22;4927;52.472;13.108;2024-01-27T06:23:49;4.20;99.90
9776;DHT22;4927;52.472;13.108;2024-01-27T06:24:52;4.20;99.90
9776;DHT22;4927;52.472;13.108;2024-01-27T06:25:53;4.20;99.90
9776;DHT22;4927;52.472;13.108;2024-01-27T06:26:55;4.20;99.90
9776;DHT22;4927;52.472;13.108;2024-01-27T06:27:57;4.20;99.90
9776;DHT22;4927;52.472;13.108;2024-01-27T06:28:59;4.20;99.90
9776;DHT22;4927;52.472;13.108;2024-01-27T06:30:01;4.20;99.90
9776;DHT22;4927;52.472;13.108;2024-01-27T06:31:03;4.20;99.90
9776;DHT22;4927;52.472;13.108;2024-01-27T06:32:05;4.20;99.90
9776;DHT22;4927;52.472;13.108;2024-01-27T06:33:07;4.20;99.90
9776;DHT22;4927;52.472;13.108;2024-01-27T06:34:08;4.20;99.90
9776;DHT22;4927;52.472;13.108;2024-01-27T06:35:10;4.20;99.90
9776;DHT22;4927;52.472;13.108;2024-01-27T06:36:12;4.20;99.90
9776;DHT22;4927;52.472;13.108;2024-01-27T06:37:14;4.20;99.90
9776;DHT22;4927;52.472;13.108;2024-01-27T06:38:15;4.20;99.90
9776;DHT22;4927;52.472;13.108;2024-01-27T06:39:18;4.20;99.90
9776;DHT22;4927;52.472;13.108;2024-01-27T06:40:20;4.20;99.90
9776;DHT22;4927;52.472;13.108;2024-01-27T06:41:21;4.20;99.90
9776;DHT22;4927;52.472;13.108;2024-01-27T06:42:23;4.20;99.90
9776;DHT22;4927;52.472;13.108;2024-01-27T06:43:25;4.20;99.90
9776;DHT22;4927;52.472;13.108;2024-01-27T06:44:27;4.30;99.90